Time;durP1;ratioP1;P1;durP2;ratioP2;P2;SDS_P1;SDS_P2;PMS_P1;PMS_P2;Temp;Humidity;BMP_temperature;BMP_pressure;BME280_temperature;BME280_humidity;BME280_pressure;Samples;Min_cycle;Max_cycle;Signal;HPM_P1;HPM_P2
2024/01/26 00:01:35;;;;;;;2.80;2.07;;;15.10;96.60;;;;;;4993418;28;20637;-6
2024/01/26 00:03:47;;;;;;;2.43;2.10;;;15.00;96.60;;;;;;5051403;28;20293;-5
2024/01/26 00:06:31;;;;;;;2.73;2.00;;;15.00;96.60;;;;;;5061553;28;20203;-6
2024/01/26 00:09:21;;;;;;;2.60;2.10;;;15.10;96.60;;;;;;5044065;28;20208;-6
2024/01/26 00:12:36;;;;;;;2.50;2.00;;;15.10;96.50;;;;;;5043032;28;20198;-6
2024/01/26 00:15:23;;;;;;;3.73;1.77;;;15.00;96.60;;;;;;4941798;29;20196;-5
2024/01/26 00:29:56;;;;;;;3.97;1.70;;;15.10;96.60;;;;;;4903077;29;20188;-6
2024/01/26 00:32:31;;;;;;;2.33;2.00;;;15.10;96.50;;;;;;4960237;28;20297;-4
2024/01/26 00:39:17;;;;;;;2.40;2.10;;;15.00;96.50;;;;;;4960230;29;20293;-4
2024/01/26 00:41:42;;;;;;;2.70;1.80;;;15.00;96.50;;;;;;4921076;29;20196;-5
2024/01/26 00:44:38;;;;;;;1.70;1.60;;;15.00;96.50;;;;;;4922020;29;20531;-5
2024/01/26 00:47:07;;;;;;;2.37;1.73;;;15.10;96.60;;;;;;4972486;28;20185;-4
2024/01/26 00:49:32;;;;;;;2.80;1.80;;;15.10;96.60;;;;;;4976561;28;20185;-5
2024/01/26 00:52:10;;;;;;;2.37;1.80;;;15.10;96.70;;;;;;4978114;28;20636;-5
2024/01/26 00:55:35;;;;;;;3.30;1.63;;;15.10;96.50;;;;;;4977366;28;20189;-6
2024/01/26 01:01:02;;;;;;;2.10;1.60;;;15.10;96.60;;;;;;4957676;29;20270;-6
2024/01/26 01:03:31;;;;;;;1.83;1.50;;;15.10;96.60;;;;;;4956699;28;20465;-4
2024/01/26 01:05:59;;;;;;;2.77;1.87;;;15.10;96.50;;;;;;4939727;29;20231;-6
2024/01/26 01:08:30;;;;;;;2.00;1.80;;;15.10;96.60;;;;;;4941061;29;20194;-6
2024/01/26 01:11:18;;;;;;;2.93;1.80;;;15.10;96.50;;;;;;4956520;28;20475;-6
2024/01/26 01:14:14;;;;;;;1.57;1.47;;;15.10;96.60;;;;;;5054292;28;20283;-6
2024/01/26 01:17:05;;;;;;;1.70;1.50;;;15.10;96.50;;;;;;5032059;28;20291;-6
2024/01/26 01:20:08;;;;;;;4.20;1.80;;;15.10;96.60;;;;;;5039114;28;20206;-6
2024/01/26 01:23:17;;;;;;;2.43;1.40;;;15.10;96.60;;;;;;5055989;28;20275;-6
2024/01/26 01:25:49;;;;;;;1.80;1.70;;;15.10;96.60;;;;;;5039278;28;20246;-6
2024/01/26 01:28:33;;;;;;;1.40;1.30;;;15.10;96.60;;;;;;5055605;28;20214;-6
2024/01/26 01:31:07;;;;;;;1.63;1.53;;;15.10;96.60;;;;;;5057040;28;20550;-8
2024/01/26 01:33:36;;;;;;;1.80;1.57;;;15.10;96.60;;;;;;5038484;28;20169;-7
2024/01/26 01:36:34;;;;;;;1.73;1.60;;;15.10;96.60;;;;;;5055878;28;20199;-6
2024/01/26 01:39:30;;;;;;;1.50;1.40;;;15.10;96.60;;;;;;4975411;28;20201;-4
2024/01/26 01:42:30;;;;;;;2.87;1.70;;;15.10;96.60;;;;;;4975645;28;20183;-6
2024/01/26 01:45:31;;;;;;;2.40;1.70;;;15.10;96.60;;;;;;4975787;28;20237;-7
2024/01/26 01:48:03;;;;;;;1.63;1.53;;;15.10;96.70;;;;;;4960961;28;20181;-5
2024/01/26 01:50:28;;;;;;;2.00;1.47;;;15.10;96.60;;;;;;4973477;28;20201;-6
2024/01/26 01:53:23;;;;;;;1.73;1.60;;;15.10;96.60;;;;;;4972748;28;20182;-7
2024/01/26 01:58:41;;;;;;;2.63;1.50;;;15.10;96.60;;;;;;4973570;28;20214;-5
2024/01/26 02:01:31;;;;;;;1.67;1.57;;;15.10;96.60;;;;;;4957702;28;20603;-6
2024/01/26 02:04:27;;;;;;;1.90;1.60;;;15.10;96.60;;;;;;4955676;28;20370;-7
2024/01/26 02:07:05;;;;;;;1.53;1.30;;;15.10;96.60;;;;;;4972680;28;20182;-6
2024/01/26 02:09:34;;;;;;;1.50;1.40;;;15.10;96.60;;;;;;4972466;28;20181;-3
2024/01/26 02:12:00;;;;;;;1.63;1.40;;;15.10;96.60;;;;;;4973839;28;20207;-6
2024/01/26 02:15:16;;;;;;;2.17;1.60;;;15.10;96.70;;;;;;4982282;28;20563;-5
2024/01/26 02:18:01;;;;;;;1.50;1.40;;;15.10;96.70;;;;;;4958350;28;20225;-6
2024/01/26 02:21:22;;;;;;;1.83;1.40;;;15.10;96.70;;;;;;4974794;28;20592;-6
2024/01/26 02:24:31;;;;;;;1.90;1.50;;;15.10;96.70;;;;;;4918402;29;20215;-5
2024/01/26 02:27:05;;;;;;;1.57;1.47;;;15.10;96.70;;;;;;4918979;29;20194;-5
2024/01/26 02:32:48;;;;;;;1.67;1.57;;;15.10;96.70;;;;;;4974758;28;20249;-6
2024/01/26 02:35:22;;;;;;;1.50;1.40;;;15.10;96.70;;;;;;4959304;28;20185;-7
2024/01/26 02:37:56;;;;;;;1.53;1.43;;;15.10;96.70;;;;;;4958723;28;20176;-6
2024/01/26 02:40:22;;;;;;;1.67;1.50;;;15.10;96.70;;;;;;4959220;28;20187;-7
2024/01/26 02:45:56;;;;;;;1.40;1.30;;;15.10;96.70;;;;;;4974933;28;20225;-6
2024/01/26 02:48:23;;;;;;;1.67;1.47;;;15.10;96.70;;;;;;4973703;28;20170;-6
2024/01/26 02:51:35;;;;;;;1.43;1.33;;;15.10;96.70;;;;;;4972621;28;20183;-5
2024/01/26 02:54:12;;;;;;;1.57;1.47;;;15.10;96.70;;;;;;4972635;28;20190;-5
2024/01/26 02:56:47;;;;;;;1.90;1.50;;;15.10;96.70;;;;;;4974140;28;20178;-6
2024/01/26 02:59:30;;;;;;;1.37;1.27;;;15.10;96.70;;;;;;5003848;28;20176;-6
2024/01/26 03:02:02;;;;;;;1.40;1.30;;;15.10;96.70;;;;;;5054994;28;20173;-9
2024/01/26 03:07:50;;;;;;;1.37;1.27;;;15.10;96.70;;;;;;5055635;28;20181;-6
2024/01/26 03:10:19;;;;;;;1.47;1.37;;;15.10;96.70;;;;;;5038280;28;20485;-7
2024/01/26 03:12:48;;;;;;;1.53;1.37;;;15.10;96.70;;;;;;5055939;28;20186;-6
2024/01/26 03:15:17;;;;;;;1.37;1.27;;;15.10;96.70;;;;;;5011839;28;20182;-5
2024/01/26 03:18:10;;;;;;;1.50;1.40;;;15.10;96.70;;;;;;5012821;28;20227;-6
2024/01/26 03:20:53;;;;;;;1.40;1.30;;;15.10;96.70;;;;;;5013350;28;20177;-4
2024/01/26 03:23:28;;;;;;;1.40;1.30;;;15.10;96.80;;;;;;5014285;28;20176;-5
2024/01/26 03:29:31;;;;;;;1.40;1.30;;;15.10;96.80;;;;;;5013533;28;20174;-6
2024/01/26 03:32:18;;;;;;;1.13;1.07;;;15.10;96.70;;;;;;5015035;28;20202;-5
2024/01/26 03:41:35;;;;;;;1.40;1.30;;;15.10;96.80;;;;;;4994295;28;20179;-5
2024/01/26 03:44:52;;;;;;;1.50;1.40;;;15.10;96.80;;;;;;4994684;28;20171;-4
2024/01/26 03:47:57;;;;;;;1.40;1.30;;;15.10;96.80;;;;;;4933988;29;20489;-6
2024/01/26 03:50:29;;;;;;;1.57;1.47;;;15.10;96.80;;;;;;4956219;29;20497;-6
2024/01/26 03:56:19;;;;;;;1.40;1.30;;;15.10;96.90;;;;;;4975069;28;20221;-6
2024/01/26 04:01:34;;;;;;;1.80;1.30;;;15.10;96.90;;;;;;4973825;28;20189;-6
2024/01/26 04:04:08;;;;;;;1.30;1.20;;;15.10;96.90;;;;;;4975088;28;20631;-5
2024/01/26 04:06:43;;;;;;;2.43;1.23;;;15.10;96.90;;;;;;4974449;28;20227;-5
2024/01/26 04:09:30;;;;;;;1.50;1.30;;;15.10;96.90;;;;;;4974284;28;20180;-5
2024/01/26 04:11:59;;;;;;;1.47;1.37;;;15.10;96.90;;;;;;4974531;28;20266;-5
2024/01/26 04:15:15;;;;;;;1.33;1.23;;;15.10;96.90;;;;;;5023215;28;20211;-6
2024/01/26 04:18:27;;;;;;;2.43;1.40;;;15.10;96.90;;;;;;4972985;28;20194;-6
2024/01/26 04:21:02;;;;;;;1.30;1.13;;;15.10;96.90;;;;;;4972920;28;20214;-7
2024/01/26 04:23:42;;;;;;;1.30;1.20;;;15.10;96.90;;;;;;4974288;28;20217;-7
2024/01/26 04:26:15;;;;;;;1.20;1.10;;;15.10;96.90;;;;;;4975233;28;20225;-6
2024/01/26 04:31:54;;;;;;;1.30;1.20;;;15.10;96.90;;;;;;4937514;29;20282;-5
2024/01/26 04:34:32;;;;;;;1.23;1.13;;;15.10;97.00;;;;;;4950814;28;20221;-6
2024/01/26 04:37:07;;;;;;;1.33;1.23;;;15.10;97.10;;;;;;5020939;28;20256;-5
2024/01/26 04:39:51;;;;;;;1.40;1.30;;;15.10;97.10;;;;;;5036443;28;20201;-6
2024/01/26 04:45:42;;;;;;;1.60;1.30;;;15.10;97.30;;;;;;5056682;28;20218;-5
2024/01/26 04:48:17;;;;;;;1.50;1.40;;;15.10;97.30;;;;;;5056946;28;20202;-6
2024/01/26 04:50:45;;;;;;;1.30;1.20;;;15.10;97.30;;;;;;5039493;28;20210;-6
2024/01/26 04:53:30;;;;;;;1.33;1.20;;;15.10;97.30;;;;;;5039340;28;20172;-4
2024/01/26 04:56:32;;;;;;;1.37;1.23;;;15.10;97.40;;;;;;5055068;28;20514;-5
2024/01/26 04:59:39;;;;;;;1.40;1.00;;;15.10;97.40;;;;;;5054388;28;20203;-5
2024/01/26 05:02:19;;;;;;;1.67;1.20;;;15.10;97.40;;;;;;5041799;28;20206;-7
2024/01/26 05:05:03;;;;;;;2.87;1.17;;;15.10;97.40;;;;;;5030185;28;20242;-5
2024/01/26 05:07:38;;;;;;;1.37;1.13;;;15.10;97.50;;;;;;5055360;28;20179;-4
2024/01/26 05:10:08;;;;;;;1.20;1.10;;;15.10;97.40;;;;;;5053260;28;20176;-6
2024/01/26 05:12:52;;;;;;;1.67;1.17;;;15.10;97.40;;;;;;5036147;28;20257;-6
2024/01/26 05:15:33;;;;;;;1.20;1.10;;;15.10;97.50;;;;;;5053977;28;20180;-5
2024/01/26 05:17:59;;;;;;;1.30;1.20;;;15.10;97.40;;;;;;5037235;28;20181;-6
2024/01/26 05:21:20;;;;;;;1.20;1.10;;;15.10;97.50;;;;;;5054553;28;20201;-5
2024/01/26 05:24:22;;;;;;;1.27;1.17;;;15.10;97.50;;;;;;5054241;28;20184;-5
2024/01/26 05:29:57;;;;;;;1.70;1.10;;;15.10;97.80;;;;;;5012411;28;20441;-5
2024/01/26 05:32:26;;;;;;;1.50;1.10;;;15.10;97.90;;;;;;4990956;28;20350;-4
2024/01/26 05:35:10;;;;;;;1.87;1.20;;;15.10;97.90;;;;;;5011337;28;20350;-5
2024/01/26 05:37:54;;;;;;;1.33;1.20;;;15.10;97.90;;;;;;5014056;28;20550;-5
2024/01/26 05:40:19;;;;;;;2.70;1.50;;;15.10;98.00;;;;;;5022271;28;20272;-4
2024/01/26 05:42:57;;;;;;;3.17;1.20;;;15.10;98.00;;;;;;5048478;28;20557;-6
2024/01/26 05:45:38;;;;;;;3.33;1.30;;;15.10;98.10;;;;;;5045441;28;20223;-5
2024/01/26 05:48:13;;;;;;;1.30;1.20;;;15.10;98.20;;;;;;5051391;28;20496;-5
2024/01/26 05:50:45;;;;;;;5.63;1.50;;;15.10;98.70;;;;;;5034007;28;20260;-8
2024/01/26 05:53:19;;;;;;;4.70;1.37;;;15.20;98.90;;;;;;5049779;28;20463;-4
2024/01/26 05:56:00;;;;;;;4.97;1.60;;;15.20;99.10;;;;;;5052763;28;20173;-4
2024/01/26 05:58:49;;;;;;;1.77;1.50;;;15.20;99.40;;;;;;5052384;28;20172;-6
2024/01/26 06:01:27;;;;;;;6.00;1.50;;;15.20;99.40;;;;;;5020155;28;20437;-5
2024/01/26 06:03:56;;;;;;;4.07;1.70;;;15.20;99.50;;;;;;5015923;28;20183;-5
2024/01/26 06:06:30;;;;;;;2.63;1.57;;;15.20;99.60;;;;;;5032462;28;20274;-6
2024/01/26 06:09:09;;;;;;;2.80;1.60;;;15.30;99.90;;;;;;5049280;28;20514;-5
2024/01/26 06:12:28;;;;;;;5.53;1.87;;;15.30;99.90;;;;;;5030850;28;20271;-6
2024/01/26 06:14:35;;;;;;;3.90;2.00;;;15.30;99.90;;;;;;5042121;28;20184;-6
2024/01/26 06:17:27;;;;;;;6.00;2.07;;;15.30;99.90;;;;;;5048879;28;20620;-5
2024/01/26 06:19:56;;;;;;;4.50;2.00;;;15.30;99.90;;;;;;5038077;28;20206;-5
2024/01/26 06:22:21;;;;;;;5.40;1.80;;;15.30;99.90;;;;;;5032759;28;20327;-5
2024/01/26 06:24:59;;;;;;;4.47;1.80;;;15.30;99.90;;;;;;5048241;28;20460;-5
2024/01/26 06:27:28;;;;;;;3.33;1.70;;;15.30;99.90;;;;;;5031288;28;20183;-6
2024/01/26 06:30:13;;;;;;;5.50;2.40;;;15.30;99.90;;;;;;5029489;28;20172;-6
2024/01/26 06:35:52;;;;;;;3.47;1.77;;;15.30;99.90;;;;;;4986856;28;20217;-5
2024/01/26 06:39:08;;;;;;;6.63;1.90;;;15.30;99.80;;;;;;4985922;28;20213;-4
2024/01/26 06:41:42;;;;;;;4.97;1.80;;;15.30;99.70;;;;;;4951643;29;20191;-6
2024/01/26 06:44:08;;;;;;;3.10;1.67;;;15.30;99.70;;;;;;4961968;28;20181;-6
2024/01/26 06:46:33;;;;;;;2.83;1.63;;;15.30;99.60;;;;;;4987973;28;20510;-9
2024/01/26 06:49:10;;;;;;;2.67;1.73;;;15.30;99.60;;;;;;4972279;28;20354;-5
2024/01/26 06:51:48;;;;;;;3.53;1.57;;;15.30;99.60;;;;;;4986787;28;20339;-5
2024/01/26 06:54:16;;;;;;;3.27;1.63;;;15.30;99.50;;;;;;5005240;28;20262;-4
2024/01/26 06:57:04;;;;;;;3.20;1.70;;;15.30;99.60;;;;;;5027598;28;20161;-5
2024/01/26 06:59:37;;;;;;;3.53;1.40;;;15.30;99.50;;;;;;5009721;28;20183;-4
2024/01/26 07:02:09;;;;;;;3.63;1.57;;;15.30;99.50;;;;;;5027001;28;20487;-4
2024/01/26 07:04:37;;;;;;;3.90;1.50;;;15.30;99.40;;;;;;5026319;28;20173;-6
2024/01/26 07:07:03;;;;;;;2.60;1.40;;;15.30;99.40;;;;;;5009378;28;20176;-5
2024/01/26 07:09:35;;;;;;;4.43;1.43;;;15.30;99.40;;;;;;5026366;28;20370;-5
2024/01/26 07:12:06;;;;;;;2.72;1.48;;;15.30;99.40;;;;;;5026249;28;20665;-6
2024/01/26 07:14:44;;;;;;;3.20;1.40;;;15.30;99.30;;;;;;5024609;28;20176;-6
2024/01/26 07:17:32;;;;;;;1.93;1.20;;;15.30;99.30;;;;;;5025783;28;20356;-6
2024/01/26 07:20:07;;;;;;;1.80;1.50;;;15.30;99.40;;;;;;5028741;28;20169;-7
2024/01/26 07:22:35;;;;;;;3.20;1.20;;;15.30;99.40;;;;;;5027602;28;20501;-7
2024/01/26 07:25:01;;;;;;;2.00;1.40;;;15.30;99.30;;;;;;5009102;28;20204;-5
2024/01/26 07:27:46;;;;;;;2.57;1.27;;;15.30;99.30;;;;;;5026897;28;20187;-5
2024/01/26 07:30:27;;;;;;;4.87;1.50;;;15.30;99.30;;;;;;5010471;28;20172;-5
2024/01/26 07:33:20;;;;;;;1.97;1.10;;;15.30;99.40;;;;;;5009605;28;20173;-4
2024/01/26 07:35:49;;;;;;;4.30;1.20;;;15.30;99.40;;;;;;5023915;28;20196;-5
2024/01/26 07:38:24;;;;;;;2.23;1.10;;;15.30;99.30;;;;;;5026083;28;20177;-4
2024/01/26 07:40:58;;;;;;;2.40;1.30;;;15.30;99.40;;;;;;5033872;28;20187;-6
2024/01/26 07:43:36;;;;;;;1.80;1.10;;;15.20;99.50;;;;;;5035942;28;20250;-6
2024/01/26 07:46:02;;;;;;;2.57;1.30;;;15.30;99.50;;;;;;5030441;28;20542;-5
2024/01/26 07:48:42;;;;;;;2.30;1.40;;;15.30;99.50;;;;;;5025812;28;20476;-5
2024/01/26 07:51:20;;;;;;;1.80;1.10;;;15.20;99.50;;;;;;5027106;28;20161;-4
2024/01/26 07:53:49;;;;;;;2.43;1.20;;;15.20;99.90;;;;;;5009142;28;20316;-6
2024/01/26 07:56:44;;;;;;;2.40;1.13;;;15.30;99.70;;;;;;5026015;28;20405;-4
2024/01/26 07:59:15;;;;;;;2.67;1.10;;;15.30;99.70;;;;;;5010398;28;20179;-4
2024/01/26 08:01:50;;;;;;;1.37;1.00;;;15.30;99.70;;;;;;5031410;28;20211;-6
2024/01/26 08:04:30;;;;;;;2.30;1.40;;;15.30;99.70;;;;;;5030470;28;20275;-5
2024/01/26 08:06:56;;;;;;;1.10;1.00;;;15.30;99.70;;;;;;5030155;28;20714;-8
2024/01/26 08:09:21;;;;;;;2.53;1.20;;;15.30;99.70;;;;;;5012836;28;20373;-5
2024/01/26 08:12:25;;;;;;;1.67;1.23;;;15.30;99.70;;;;;;5026730;28;20242;-6
2024/01/26 08:14:54;;;;;;;2.07;1.13;;;15.30;99.70;;;;;;4939906;29;20218;-5
2024/01/26 08:17:25;;;;;;;1.20;1.00;;;15.20;99.70;;;;;;4948839;29;20225;-7
2024/01/26 08:19:53;;;;;;;2.70;1.13;;;15.20;99.70;;;;;;4948027;29;20190;-6
2024/01/26 08:22:28;;;;;;;3.00;1.23;;;15.30;99.70;;;;;;4945057;28;20250;-4
2024/01/26 08:25:00;;;;;;;2.90;1.00;;;15.30;99.70;;;;;;5025981;28;20269;-5
2024/01/26 08:27:28;;;;;;;1.33;1.17;;;15.20;99.60;;;;;;5026229;28;20207;-5
2024/01/26 08:29:54;;;;;;;1.67;1.20;;;15.20;99.60;;;;;;5026461;28;20386;-5
2024/01/26 08:32:26;;;;;;;1.80;1.03;;;15.20;99.60;;;;;;5025289;28;20173;-6
2024/01/26 08:34:55;;;;;;;1.50;1.20;;;15.20;99.60;;;;;;5009903;28;20299;-6
2024/01/26 08:37:21;;;;;;;1.87;1.10;;;15.20;99.70;;;;;;5026717;28;20189;-5
2024/01/26 08:39:47;;;;;;;3.30;1.10;;;15.20;99.70;;;;;;5011153;28;20257;-4
2024/01/26 08:42:13;;;;;;;2.03;0.90;;;15.20;99.70;;;;;;5009085;28;20180;-4
2024/01/26 08:44:53;;;;;;;1.17;1.07;;;15.20;99.60;;;;;;5005749;28;20209;-5
2024/01/26 08:47:28;;;;;;;1.97;1.03;;;15.20;99.70;;;;;;5011478;28;20211;-6
2024/01/26 08:50:44;;;;;;;2.33;1.10;;;15.20;99.70;;;;;;5028145;28;20214;-5
2024/01/26 08:53:19;;;;;;;1.90;1.00;;;15.20;99.60;;;;;;5030102;28;20388;-8
2024/01/26 08:55:46;;;;;;;2.80;1.10;;;15.20;99.70;;;;;;5012030;28;20436;-5
2024/01/26 08:58:30;;;;;;;1.50;1.03;;;15.30;99.70;;;;;;5030141;28;20185;-5
2024/01/26 09:01:11;;;;;;;1.53;1.13;;;15.30;99.70;;;;;;5013159;28;20177;-4
2024/01/26 09:03:40;;;;;;;1.20;1.10;;;15.30;99.70;;;;;;5011157;28;20195;-5
2024/01/26 09:06:11;;;;;;;1.20;0.93;;;15.30;99.70;;;;;;5029137;28;20254;-5
2024/01/26 09:08:38;;;;;;;1.40;1.20;;;15.30;99.70;;;;;;5029862;28;20546;-5
2024/01/26 09:11:07;;;;;;;1.07;0.90;;;15.30;99.70;;;;;;5013641;28;20696;-5
2024/01/26 09:13:35;;;;;;;1.80;1.00;;;15.30;99.70;;;;;;5029168;28;20391;-5
2024/01/26 09:16:09;;;;;;;3.60;1.37;;;15.30;99.80;;;;;;5027603;28;20227;-4
2024/01/26 09:18:44;;;;;;;1.67;1.20;;;15.30;99.80;;;;;;5028746;28;20177;-7
2024/01/26 09:21:22;;;;;;;1.83;1.00;;;15.30;99.80;;;;;;5011409;28;20756;-6
2024/01/26 09:23:54;;;;;;;1.20;1.10;;;15.30;99.80;;;;;;5010078;28;20246;-5
2024/01/26 09:26:21;;;;;;;1.60;1.07;;;15.30;99.80;;;;;;5008909;28;20218;-4
2024/01/26 09:29:02;;;;;;;1.97;1.00;;;15.30;99.90;;;;;;5025030;28;20173;-5
2024/01/26 09:31:36;;;;;;;1.17;0.90;;;15.30;99.80;;;;;;5009125;28;20192;-6
2024/01/26 09:34:09;;;;;;;1.10;0.93;;;15.30;99.80;;;;;;5005796;28;20522;-4
2024/01/26 09:36:40;;;;;;;1.67;1.10;;;15.30;99.80;;;;;;5026443;28;20193;-7
2024/01/26 09:39:07;;;;;;;1.20;1.10;;;15.30;99.80;;;;;;5010064;28;20287;-6
2024/01/26 09:41:38;;;;;;;1.73;1.00;;;15.30;99.80;;;;;;5027654;28;20276;-6
2024/01/26 09:44:07;;;;;;;1.30;1.10;;;15.30;99.80;;;;;;5009719;28;20195;-5
2024/01/26 09:46:39;;;;;;;1.40;1.00;;;15.30;99.80;;;;;;5026466;28;20263;-6
2024/01/26 09:49:14;;;;;;;1.23;0.90;;;15.30;99.80;;;;;;5025712;28;20173;-6
2024/01/26 09:51:43;;;;;;;0.80;0.80;;;15.30;99.80;;;;;;5024459;28;20319;-7
2024/01/26 09:54:11;;;;;;;1.40;1.00;;;15.30;99.80;;;;;;5008950;28;20172;-6
2024/01/26 09:56:39;;;;;;;0.90;0.90;;;15.30;99.80;;;;;;5025437;28;20586;-5
2024/01/26 09:59:15;;;;;;;0.97;0.87;;;15.30;99.70;;;;;;5025778;28;20168;-6
2024/01/26 10:01:47;;;;;;;0.80;0.80;;;15.30;99.80;;;;;;5007273;28;20546;-6
2024/01/26 10:04:13;;;;;;;1.80;0.90;;;15.30;99.70;;;;;;5008541;28;20176;-5
2024/01/26 10:06:48;;;;;;;3.07;0.97;;;15.30;99.80;;;;;;5028188;28;20214;-5
2024/01/26 10:09:17;;;;;;;0.90;0.90;;;15.30;99.80;;;;;;5030493;28;20568;-4
2024/01/26 10:11:43;;;;;;;1.87;1.23;;;15.40;99.90;;;;;;5026808;28;20250;-4
2024/01/26 10:14:22;;;;;;;1.77;0.90;;;15.40;99.90;;;;;;5041943;28;20165;-5
2024/01/26 10:17:07;;;;;;;0.90;0.90;;;15.30;99.90;;;;;;5056223;28;20246;-3
2024/01/26 10:19:34;;;;;;;1.33;1.03;;;15.40;99.90;;;;;;5037278;28;20286;-13
2024/01/26 10:22:00;;;;;;;1.67;1.00;;;15.40;99.90;;;;;;5054099;28;20232;-7
2024/01/26 10:24:29;;;;;;;1.27;0.90;;;15.40;99.90;;;;;;5047466;28;20643;-6
2024/01/26 10:27:04;;;;;;;0.90;0.90;;;15.40;99.90;;;;;;5047545;28;20199;-5
2024/01/26 10:29:37;;;;;;;1.30;0.90;;;15.40;99.90;;;;;;5029195;28;20179;-5
2024/01/26 10:32:19;;;;;;;1.17;1.07;;;15.40;99.90;;;;;;5046886;28;20436;-5
2024/01/26 10:34:52;;;;;;;1.50;1.30;;;15.40;99.90;;;;;;5048196;28;20419;-5
2024/01/26 10:37:24;;;;;;;1.30;1.10;;;15.40;99.90;;;;;;5047193;28;20273;-5
2024/01/26 10:40:04;;;;;;;2.97;1.07;;;15.40;99.90;;;;;;5028306;28;20207;-4
2024/01/26 10:42:33;;;;;;;1.03;0.90;;;15.40;99.90;;;;;;5028431;28;20277;-5
2024/01/26 10:45:07;;;;;;;1.00;0.90;;;15.40;99.90;;;;;;5027668;28;20241;-6
2024/01/26 10:47:50;;;;;;;2.33;1.10;;;15.40;99.90;;;;;;5045462;28;20230;-5
2024/01/26 10:50:18;;;;;;;1.77;1.37;;;15.40;99.90;;;;;;5027114;28;20343;-6
2024/01/26 10:52:49;;;;;;;1.30;1.00;;;15.40;99.90;;;;;;5026039;28;20168;-5
2024/01/26 10:55:20;;;;;;;0.80;0.80;;;15.40;99.90;;;;;;5027820;28;20406;-6
2024/01/26 10:57:52;;;;;;;2.27;1.20;;;15.40;99.90;;;;;;5027839;28;20208;-6
2024/01/26 11:00:21;;;;;;;0.90;0.90;;;15.40;99.90;;;;;;5027275;28;20190;-6
2024/01/26 11:02:49;;;;;;;1.10;1.00;;;15.40;99.90;;;;;;5045199;28;20486;-4
2024/01/26 11:05:22;;;;;;;1.17;1.00;;;15.40;99.90;;;;;;5045015;28;20196;-6
2024/01/26 11:07:48;;;;;;;3.43;1.10;;;15.40;99.90;;;;;;5043704;28;20167;-6
2024/01/26 11:10:24;;;;;;;2.57;0.97;;;15.50;99.90;;;;;;5046582;28;20207;-5
2024/01/26 11:13:41;;;;;;;1.03;0.93;;;15.40;99.90;;;;;;5046342;28;20194;-6
2024/01/26 11:16:10;;;;;;;1.10;1.00;;;15.40;99.90;;;;;;4945033;29;20436;-5
2024/01/26 11:18:45;;;;;;;2.63;0.90;;;15.50;99.90;;;;;;4960162;28;20615;-6
2024/01/26 11:21:19;;;;;;;1.73;1.07;;;15.50;99.90;;;;;;5045099;28;20167;-6
2024/01/26 11:23:45;;;;;;;1.97;0.90;;;15.50;99.90;;;;;;5026101;28;20211;-6
2024/01/26 11:26:14;;;;;;;1.13;1.03;;;15.50;99.90;;;;;;5026111;28;20346;-5
2024/01/26 11:29:04;;;;;;;2.60;0.90;;;15.50;99.90;;;;;;5047702;28;20160;-5
2024/01/26 11:31:44;;;;;;;0.90;0.77;;;15.50;99.90;;;;;;5030078;28;20171;-9
2024/01/26 11:34:31;;;;;;;1.00;0.90;;;15.50;99.90;;;;;;5030783;28;20168;-6
2024/01/26 11:37:11;;;;;;;3.17;1.00;;;15.50;99.90;;;;;;5038194;28;20553;-6
2024/01/26 11:39:44;;;;;;;1.67;1.00;;;15.50;99.90;;;;;;5037730;28;20649;-6
2024/01/26 11:42:25;;;;;;;2.83;1.00;;;15.50;99.90;;;;;;5035260;28;20462;-5
2024/01/26 11:45:23;;;;;;;1.43;0.97;;;15.50;99.90;;;;;;5044053;28;20253;-5
2024/01/26 11:47:55;;;;;;;1.73;0.90;;;15.50;99.90;;;;;;5028017;28;20550;-6
2024/01/26 11:50:23;;;;;;;3.00;1.10;;;15.50;99.90;;;;;;5028164;28;20208;-7
2024/01/26 11:52:52;;;;;;;0.80;0.80;;;15.50;99.90;;;;;;5030090;28;20319;-6
2024/01/26 11:55:38;;;;;;;5.03;1.23;;;15.50;99.90;;;;;;5029065;28;20178;-8
2024/01/26 11:58:07;;;;;;;2.30;0.80;;;15.50;99.90;;;;;;5028976;28;20679;-6
2024/01/26 12:00:35;;;;;;;5.93;1.10;;;15.50;99.90;;;;;;5046058;28;20218;-5
2024/01/26 12:03:15;;;;;;;2.17;0.97;;;15.50;99.90;;;;;;5044828;28;20434;-5
2024/01/26 12:05:41;;;;;;;1.57;0.93;;;15.50;99.90;;;;;;5026758;28;20293;-5
2024/01/26 12:08:12;;;;;;;2.27;1.03;;;15.50;99.90;;;;;;5044251;28;20594;-6
2024/01/26 12:10:50;;;;;;;1.90;1.00;;;15.50;99.90;;;;;;5044726;28;20419;-5
2024/01/26 12:13:16;;;;;;;2.87;1.00;;;15.50;99.90;;;;;;5028052;28;20170;-5
2024/01/26 12:16:00;;;;;;;5.03;0.97;;;15.50;99.90;;;;;;5045289;28;20168;-6
2024/01/26 12:18:25;;;;;;;1.47;0.80;;;15.50;99.90;;;;;;5044071;28;20272;-5
2024/01/26 12:21:03;;;;;;;2.40;0.90;;;15.50;99.90;;;;;;5045701;28;20259;-6
2024/01/26 12:23:41;;;;;;;2.67;1.00;;;15.50;99.90;;;;;;5027412;28;20561;-6
2024/01/26 12:26:19;;;;;;;2.00;1.00;;;15.50;99.90;;;;;;5029622;28;20291;-5
2024/01/26 12:28:51;;;;;;;2.90;0.90;;;15.50;99.90;;;;;;5027903;28;20339;-5
2024/01/26 12:31:21;;;;;;;2.50;1.30;;;15.50;99.90;;;;;;5047824;28;20173;-5
2024/01/26 12:34:09;;;;;;;2.37;1.13;;;15.50;99.90;;;;;;5046694;28;20296;-5
2024/01/26 12:36:36;;;;;;;1.17;1.00;;;15.50;99.90;;;;;;5045401;28;20255;-6
2024/01/26 12:39:20;;;;;;;2.63;1.20;;;15.50;99.90;;;;;;5044214;28;20388;-6
2024/01/26 12:41:46;;;;;;;2.23;1.10;;;15.50;99.90;;;;;;5044030;28;20447;-5
2024/01/26 12:44:12;;;;;;;1.30;1.10;;;15.60;99.90;;;;;;5027951;28;20634;-5
2024/01/26 12:46:50;;;;;;;4.00;1.37;;;15.50;99.90;;;;;;5030112;28;20481;-7
2024/01/26 12:49:37;;;;;;;1.60;1.30;;;15.60;99.90;;;;;;5031448;28;20175;-5
2024/01/26 12:52:08;;;;;;;3.63;1.20;;;15.60;99.90;;;;;;5026709;28;20449;-5
2024/01/26 12:54:59;;;;;;;2.43;1.03;;;15.60;99.90;;;;;;5027557;28;20177;-5
2024/01/26 12:57:25;;;;;;;1.20;1.10;;;15.60;99.90;;;;;;5010619;28;20276;-6
2024/01/26 13:00:00;;;;;;;2.93;1.20;;;15.60;99.90;;;;;;5003214;28;20276;-6
2024/01/26 13:02:26;;;;;;;3.30;1.33;;;15.70;99.90;;;;;;5024654;28;20308;-6
2024/01/26 13:05:05;;;;;;;2.20;1.20;;;15.70;99.90;;;;;;5025207;28;20602;-4
2024/01/26 13:07:33;;;;;;;2.00;1.40;;;15.70;99.90;;;;;;5007914;28;20734;-6
2024/01/26 13:10:11;;;;;;;2.80;1.33;;;15.70;99.90;;;;;;5024630;28;20452;-6
2024/01/26 13:12:39;;;;;;;1.63;1.13;;;15.70;99.90;;;;;;5008329;28;20177;-6
2024/01/26 13:15:26;;;;;;;2.20;1.20;;;15.70;99.90;;;;;;5007128;28;20239;-6
2024/01/26 13:18:02;;;;;;;1.63;1.20;;;15.70;99.90;;;;;;5007635;28;20184;-5
2024/01/26 13:20:32;;;;;;;2.63;1.13;;;15.70;99.90;;;;;;5008538;28;20284;-6
2024/01/26 13:22:58;;;;;;;2.03;1.30;;;15.70;99.90;;;;;;5018347;28;20214;-5
2024/01/26 13:25:27;;;;;;;2.10;1.27;;;15.70;99.90;;;;;;5044806;28;20475;-6
2024/01/26 13:27:58;;;;;;;3.10;1.20;;;15.70;99.90;;;;;;5045389;28;20183;-5
2024/01/26 13:30:30;;;;;;;2.37;1.30;;;15.70;99.90;;;;;;5045537;28;20176;-5
2024/01/26 13:33:42;;;;;;;3.17;1.20;;;15.70;99.90;;;;;;5046238;28;20574;-6
2024/01/26 13:36:07;;;;;;;1.50;1.10;;;15.70;99.90;;;;;;5028689;28;20184;-5
2024/01/26 13:38:33;;;;;;;2.30;1.00;;;15.60;99.90;;;;;;5027312;28;20473;-6
2024/01/26 13:41:20;;;;;;;1.67;1.00;;;15.60;99.90;;;;;;5027952;28;20250;-7
2024/01/26 13:43:49;;;;;;;1.40;1.10;;;15.60;99.90;;;;;;5023242;28;20281;-5
2024/01/26 13:46:26;;;;;;;2.03;1.20;;;15.60;99.90;;;;;;5029743;28;20471;-6
2024/01/26 13:48:58;;;;;;;1.40;1.10;;;15.60;99.90;;;;;;5047318;28;20492;-7
2024/01/26 13:51:26;;;;;;;1.40;1.07;;;15.60;99.90;;;;;;5024582;28;20183;-6
2024/01/26 13:54:01;;;;;;;2.70;1.17;;;15.60;99.90;;;;;;5028732;28;20436;-6
2024/01/26 13:56:27;;;;;;;2.20;1.17;;;15.60;99.90;;;;;;5047216;28;20545;-5
2024/01/26 13:59:03;;;;;;;1.90;1.20;;;15.60;99.90;;;;;;5046384;28;20373;-6
2024/01/26 14:01:34;;;;;;;1.63;1.10;;;15.60;99.90;;;;;;5027568;28;20191;-6
2024/01/26 14:04:04;;;;;;;1.03;0.90;;;15.60;99.90;;;;;;5043433;28;20528;-5
2024/01/26 14:06:30;;;;;;;2.00;1.20;;;15.60;99.90;;;;;;5027599;28;20499;-5
2024/01/26 14:09:17;;;;;;;2.20;0.93;;;15.60;99.90;;;;;;5028596;28;20203;-6
2024/01/26 14:11:46;;;;;;;4.40;1.30;;;15.60;99.90;;;;;;5047751;28;20178;-5
2024/01/26 14:14:11;;;;;;;3.17;1.00;;;15.60;99.90;;;;;;5028599;28;20178;-4
2024/01/26 14:16:46;;;;;;;1.57;1.00;;;15.60;99.90;;;;;;5045563;28;20255;-6
2024/01/26 14:19:32;;;;;;;1.40;1.00;;;15.60;99.90;;;;;;5029528;28;20352;-5
2024/01/26 14:22:22;;;;;;;1.80;1.30;;;15.60;99.90;;;;;;5029005;28;20572;-5
2024/01/26 14:25:06;;;;;;;1.73;1.20;;;15.50;99.90;;;;;;5045170;28;20344;-6
2024/01/26 14:27:35;;;;;;;1.70;1.20;;;15.60;99.90;;;;;;5045450;28;20212;-5
2024/01/26 14:30:11;;;;;;;2.17;1.10;;;15.60;99.90;;;;;;5027241;28;20233;-5
2024/01/26 14:32:55;;;;;;;2.37;1.20;;;15.60;99.90;;;;;;5025556;28;20218;-6
2024/01/26 14:35:30;;;;;;;2.30;1.20;;;15.60;99.90;;;;;;5026430;28;20409;-5
2024/01/26 14:38:18;;;;;;;2.43;1.13;;;15.60;99.90;;;;;;5046547;28;20242;-7
2024/01/26 14:41:02;;;;;;;1.97;1.20;;;15.60;99.90;;;;;;5027004;28;20697;-5
2024/01/26 14:43:49;;;;;;;5.73;3.20;;;15.60;99.90;;;;;;5027030;28;20443;-5
2024/01/26 14:46:46;;;;;;;2.70;1.20;;;15.60;99.90;;;;;;5046159;28;20321;-7
2024/01/26 14:49:18;;;;;;;3.00;1.50;;;15.60;99.90;;;;;;5025614;28;20185;-5
2024/01/26 14:51:44;;;;;;;3.70;1.47;;;15.60;99.90;;;;;;5045293;28;20270;-5